Terminal Aerodrome Forecast
Issued by NWS

Current Version | Previous Version | Text Only | Print | Product List | Glossary Off
Versions: 1 2 3 4 5 6 7 8 9 10 11 12 13 14 15 16 17 18 19 20 21 22 23 24

000
FTUS41 KPBZ 220539
TAFHLG
TAF
KHLG 220539Z 2206/2306 21005KT P6SM -SHRA OVC040
      TEMPO 2207/2211 5SM -SHRA
     FM221200 22006KT P6SM VCSH BKN035
     FM222300 22008KT P6SM -SHRA VCTS BKN035CB
     FM230200 21008KT P6SM BKN035
     FM230500 29008KT P6SM OVC025=

USA.gov is the U.S. government's official web portal to all federal, state and local government web resources and services.